Terminal Aerodrome Forecast
Issued by NWS

Home | Current Version | Previous Version | Text Only | Print | Product List | Glossary On
Versions: 1 2 3 4 5 6 7 8 9 10 11 12 13 14 15 16 17 18 19 20 21
000
FTUS42 KKEY 200354 AAA
TAFMTH
TAF AMD
KMTH 200354Z 2004/2024 05010KT P6SM VCSH SCT025 SCT060
      TEMPO 2004/2006 5SM -SHRA BKN025 BKN060 BKN100
     FM201200 05008G16KT P6SM SCT025
     FM201600 08011G20KT P6SM SCT025=

USA.gov is the U.S. government's official web portal to all federal, state and local government web resources and services.